This is the latest recevied weather packets stored in our database for station/object KB4RFE. If no packets are shown the sender has not sent any weather packets the latest 10 day(s).
| Time | Temp. | Humidity | Pressure | Rain* | Wind** | Luminosity | Snow |
|---|---|---|---|---|---|---|---|
| 1777641156 | 19.44° C | 88% | 1015.4 hPa | 0 mm | - | 195 W/m² | - |
| 1777640851 | 20° C | 87% | 1015.5 hPa | 0 mm | - | 163 W/m² | - |
| 1777640549 | 19.44° C | 89% | 1015.8 hPa | 0 mm | - | 268 W/m² | - |
| 1777640245 | 19.44° C | 88% | 1015.4 hPa | 0 mm | - | 177 W/m² | - |
| 1777639942 | 19.44° C | 89% | 1015.5 hPa | 0 mm | - | 143 W/m² | - |
| 1777639639 | 18.89° C | 90% | 1015.3 hPa | 0 mm | - | 173 W/m² | - |
| 1777639336 | 18.33° C | 91% | 1015.4 hPa | 0 mm | - | 189 W/m² | - |
| 1777639032 | 18.33° C | 91% | 1015.3 hPa | 0 mm | - | 103 W/m² | - |
| 1777638729 | 18.33° C | 91% | 1015.3 hPa | 0 mm | - | 115 W/m² | - |
| 1777638425 | 18.33° C | 92% | 1015.2 hPa | 0 mm | - | 105 W/m² | - |
| 1777638121 | 17.78° C | 92% | 1015.1 hPa | 0 mm | - | 134 W/m² | - |
| 1777637817 | 17.78° C | 93% | 1015.4 hPa | 0 mm | - | 110 W/m² | - |
| 1777637514 | 17.78° C | 93% | 1015.7 hPa | 0 mm | - | 101 W/m² | - |
| 1777637212 | 17.78° C | 93% | 1015.6 hPa | 0 mm | - | 104 W/m² | - |
| 1777636909 | 17.78° C | 94% | 1015.6 hPa | 0 mm | - | 94 W/m² | - |
| 1777636604 | 17.78° C | 95% | 1015.4 hPa | 0 mm | - | 89 W/m² | - |
| 1777636300 | 17.78° C | 95% | 1015.1 hPa | 0 mm | - | 72 W/m² | - |
| 1777635995 | 17.78° C | 96% | 1015.2 hPa | 0.51 mm | - | 73 W/m² | - |
| 1777635691 | 17.78° C | 96% | 1015.3 hPa | 1.27 mm | - | 57 W/m² | - |
| 1777635388 | 17.78° C | 96% | 1015.1 hPa | 0.51 mm | - | 48 W/m² | - |
| 1777635085 | 17.22° C | 97% | 1014.7 hPa | 0 mm | - | 49 W/m² | - |
| 1777634781 | 17.22° C | 97% | 1015 hPa | 0 mm | - | 39 W/m² | - |
| 1777634478 | 17.22° C | 97% | 1015 hPa | 0.51 mm | - | 36 W/m² | - |
| 1777634175 | 17.22° C | 97% | 1015.1 hPa | 0.51 mm | - | 27 W/m² | - |
| 1777633871 | 17.22° C | 97% | 1015.1 hPa | 0 mm | - | 21 W/m² | - |
* Rain latest hour (hover to see other rain measurements)
** Current wind speed in m/s (hover to see current wind gust speed)